Terminal Aerodrome Forecast
Issued by NWS

Home | Current Version | Previous Version | Text Only | Print | Product List | Glossary On
Versions: 1 2 3 4 5 6 7 8 9 10 11 12 13 14 15
129
FTUS43 KMQT 191740
TAFIWD
TAF
KIWD 191740Z 1918/2018 20006KT P6SM SCT020
     FM200200 19005KT P6SM BKN035
     FM200400 19005KT P6SM BKN015
     FM200800 17004KT P6SM BKN010
     FM201500 15003KT 4SM -RA OVC005=

USA.gov is the U.S. government's official web portal to all federal, state and local government web resources and services.